createdAt,value
2023-01-12T00:01:52.664Z,98139.84
2023-01-12T00:04:19.851Z,98142.75
2023-01-12T00:06:46.626Z,98144.81
2023-01-12T00:09:13.432Z,98135.00
2023-01-12T00:11:40.797Z,98134.16
2023-01-12T00:14:09.270Z,98137.31
2023-01-12T00:16:40.851Z,98139.09
2023-01-12T00:19:15.916Z,98127.25
2023-01-12T00:22:10.689Z,98128.66
2023-01-12T00:24:39.671Z,98123.13
2023-01-12T00:27:16.797Z,98122.47
2023-01-12T00:29:43.798Z,98116.75
2023-01-12T00:32:16.943Z,98116.84
2023-01-12T00:34:43.815Z,98118.91
2023-01-12T00:37:11.072Z,98114.34
2023-01-12T00:39:40.733Z,98120.00
2023-01-12T00:42:31.191Z,98118.63
2023-01-12T00:45:16.452Z,98124.88
2023-01-12T00:47:43.196Z,98128.91
2023-01-12T00:50:09.786Z,98124.63
2023-01-12T00:52:36.236Z,98118.84
2023-01-12T00:55:03.098Z,98128.91
2023-01-12T00:57:29.849Z,98124.63
2023-01-12T00:59:59.813Z,98123.22
2023-01-12T01:02:28.070Z,98119.66
2023-01-12T01:04:55.355Z,98110.00
2023-01-12T01:07:22.001Z,98116.91
2023-01-12T01:09:49.474Z,98116.09
2023-01-12T01:12:16.183Z,98110.66
2023-01-12T01:14:42.798Z,98108.03
2023-01-12T01:17:09.358Z,98107.38
2023-01-12T01:19:36.701Z,98101.19
2023-01-12T01:22:03.279Z,98106.06
2023-01-12T01:24:29.748Z,98112.09
2023-01-12T01:26:56.261Z,98108.53
2023-01-12T01:29:22.751Z,98106.19
2023-01-12T01:31:49.263Z,98112.63
2023-01-12T01:34:15.819Z,98099.88
2023-01-12T01:36:42.649Z,98113.75
2023-01-12T01:39:09.277Z,98114.03
2023-01-12T01:41:35.757Z,98117.69
2023-01-12T01:44:06.832Z,98109.06
2023-01-12T01:46:51.748Z,98108.75
2023-01-12T01:49:43.396Z,98113.28
2023-01-12T01:52:16.438Z,98105.72
2023-01-12T01:55:17.097Z,98098.44
2023-01-12T01:57:54.853Z,98114.78
2023-01-12T02:00:24.329Z,98105.41
2023-01-12T02:02:52.937Z,98104.41
2023-01-12T02:05:24.661Z,98093.16
2023-01-12T02:07:53.702Z,98085.88
2023-01-12T02:10:21.353Z,98088.09
2023-01-12T02:13:08.240Z,98080.78
2023-01-12T02:16:19.925Z,98078.63
2023-01-12T02:18:55.358Z,98078.19
2023-01-12T02:22:04.475Z,98078.19
2023-01-12T02:25:07.478Z,98067.31
2023-01-12T02:28:16.988Z,98073.31
2023-01-12T02:31:25.232Z,98059.06
2023-01-12T02:34:28.739Z,98062.19
2023-01-12T02:37:27.768Z,98064.16
2023-01-12T02:40:07.368Z,98057.28
2023-01-12T02:42:51.476Z,98053.44
2023-01-12T02:45:54.378Z,98057.09
2023-01-12T02:48:55.740Z,98053.66
2023-01-12T02:51:33.316Z,98058.38
2023-01-12T02:54:07.001Z,98058.91
2023-01-12T02:56:41.487Z,98059.28
2023-01-12T02:59:20.206Z,98051.81
2023-01-12T03:01:51.152Z,98052.16
2023-01-12T03:04:20.404Z,98051.56
2023-01-12T03:06:55.853Z,98048.94
2023-01-12T03:09:32.812Z,98047.84
2023-01-12T03:12:08.634Z,98043.44
2023-01-12T03:14:40.664Z,98034.66
2023-01-12T03:17:22.792Z,98030.78
2023-01-12T03:19:52.665Z,98032.19
2023-01-12T03:22:21.395Z,98031.97
2023-01-12T03:24:58.074Z,98034.31
2023-01-12T03:27:30.392Z,98025.16
2023-01-12T03:30:23.915Z,98013.44
2023-01-12T03:32:51.811Z,98016.38
2023-01-12T03:35:27.065Z,98019.56
2023-01-12T03:38:19.019Z,98005.91
2023-01-12T03:41:10.015Z,98015.50
2023-01-12T03:43:53.432Z,98004.72
2023-01-12T03:46:32.244Z,98008.50
2023-01-12T03:49:10.477Z,98008.28
2023-01-12T03:51:45.258Z,98004.34
2023-01-12T03:54:14.945Z,98005.06
2023-01-12T03:56:45.321Z,97995.22
2023-01-12T03:59:13.005Z,97996.88
2023-01-12T04:01:41.741Z,97994.38
2023-01-12T04:04:08.451Z,97987.56
2023-01-12T04:06:34.992Z,97978.66
2023-01-12T04:09:01.483Z,97983.13
2023-01-12T04:11:46.747Z,97972.31
2023-01-12T04:14:13.450Z,97964.13
2023-01-12T04:16:39.935Z,97960.03
2023-01-12T04:19:06.468Z,97966.94
2023-01-12T04:21:51.740Z,97964.03
2023-01-12T04:24:18.217Z,97976.00
2023-01-12T04:26:45.738Z,97960.06
2023-01-12T04:29:12.411Z,97951.78
2023-01-12T04:31:39.144Z,97963.88
2023-01-12T04:34:05.621Z,97948.56
2023-01-12T04:36:32.136Z,97953.41
2023-01-12T04:38:58.597Z,97947.31
2023-01-12T04:41:25.111Z,97945.72
2023-01-12T04:43:51.562Z,97932.28
2023-01-12T04:46:18.038Z,97938.81
2023-01-12T04:48:45.514Z,97921.38
2023-01-12T04:51:12.491Z,97922.84
2023-01-12T04:53:39.106Z,97918.16
2023-01-12T04:56:07.569Z,97922.56
2023-01-12T04:58:35.016Z,97905.38
2023-01-12T05:01:19.394Z,97908.50
2023-01-12T05:03:46.150Z,97910.19
2023-01-12T05:06:12.996Z,97906.50
2023-01-12T05:08:58.152Z,97904.41
2023-01-12T05:11:29.140Z,97896.22
2023-01-12T05:13:57.400Z,97896.84
2023-01-12T05:16:25.030Z,97894.84
2023-01-12T05:18:53.227Z,97903.97
2023-01-12T05:21:22.272Z,97886.06
2023-01-12T05:23:51.412Z,97885.53
2023-01-12T05:26:18.860Z,97893.41
2023-01-12T05:28:49.856Z,97896.53
2023-01-12T05:31:16.920Z,97877.34
2023-01-12T05:33:43.445Z,97873.91
2023-01-12T05:36:13.751Z,97870.53
2023-01-12T05:38:40.481Z,97864.66
2023-01-12T05:41:07.419Z,97870.53
2023-01-12T05:43:52.385Z,97860.69
2023-01-12T05:46:30.005Z,97865.81
2023-01-12T05:48:58.396Z,97862.78
2023-01-12T05:51:27.719Z,97860.47
2023-01-12T05:53:55.209Z,97849.56
2023-01-12T05:56:27.578Z,97845.59
2023-01-12T05:59:00.181Z,97840.53
2023-01-12T06:01:29.416Z,97812.88
2023-01-12T06:04:00.183Z,97823.75
2023-01-12T06:06:31.098Z,97820.91
2023-01-12T06:08:59.511Z,97819.88
2023-01-12T06:11:44.719Z,97807.41
2023-01-12T06:14:11.301Z,97804.47
2023-01-12T06:16:41.310Z,97808.25
2023-01-12T06:19:12.440Z,97809.72
2023-01-12T06:21:40.319Z,97806.56
2023-01-12T06:24:07.791Z,97803.44
2023-01-12T06:26:34.337Z,97799.53
2023-01-12T06:29:00.967Z,97807.84
2023-01-12T06:31:27.509Z,97807.59
2023-01-12T06:33:54.030Z,97808.03
2023-01-12T06:36:20.525Z,97809.50
2023-01-12T06:38:47.025Z,97812.34
2023-01-12T06:41:32.142Z,97809.09
2023-01-12T06:43:59.835Z,97817.56
2023-01-12T06:46:27.649Z,97810.84
2023-01-12T06:48:58.428Z,97799.44
2023-01-12T06:51:25.361Z,97794.09
2023-01-12T06:53:52.104Z,97792.09
2023-01-12T06:56:18.672Z,97792.28
2023-01-12T06:58:45.711Z,97781.41
2023-01-12T07:01:13.773Z,97785.81
2023-01-12T07:03:40.646Z,97787.91
2023-01-12T07:06:07.268Z,97787.06
2023-01-12T07:08:34.076Z,97778.91
2023-01-12T07:11:07.798Z,97781.94
2023-01-12T07:13:35.056Z,97781.09
2023-01-12T07:16:02.407Z,97763.16
2023-01-12T07:18:30.509Z,97781.28
2023-01-12T07:20:57.624Z,97764.72
2023-01-12T07:23:24.557Z,97779.50
2023-01-12T07:25:51.237Z,97762.97
2023-01-12T07:28:17.703Z,97773.63
2023-01-12T07:30:44.201Z,97763.69
2023-01-12T07:33:14.140Z,97758.34
2023-01-12T07:35:42.106Z,97773.03
2023-01-12T07:38:10.137Z,97767.56
2023-01-12T07:40:37.001Z,97764.63
2023-01-12T07:43:08.803Z,97764.31
2023-01-12T07:45:36.380Z,97758.00
2023-01-12T07:48:03.523Z,97764.22
2023-01-12T07:50:30.181Z,97756.84
2023-01-12T07:53:01.492Z,97752.69
2023-01-12T07:55:29.539Z,97754.97
2023-01-12T07:58:03.169Z,97755.50
2023-01-12T08:00:30.950Z,97742.81
2023-01-12T08:03:12.315Z,97744.91
2023-01-12T08:05:39.564Z,97737.91
2023-01-12T08:08:07.532Z,97735.78
2023-01-12T08:10:34.590Z,97745.75
2023-01-12T08:13:01.092Z,97744.09
2023-01-12T08:15:33.467Z,97737.56
2023-01-12T08:18:13.852Z,97739.69
2023-01-12T08:20:40.734Z,97734.03
2023-01-12T08:23:15.356Z,97749.00
2023-01-12T08:25:48.253Z,97758.13
2023-01-12T08:28:24.944Z,97756.47
2023-01-12T08:30:52.385Z,97751.84
2023-01-12T08:33:19.935Z,97750.97
2023-01-12T08:35:48.074Z,97742.38
2023-01-12T08:38:14.945Z,97748.25
2023-01-12T08:41:00.275Z,97748.03
2023-01-12T08:43:56.083Z,97752.03
2023-01-12T08:46:22.592Z,97758.66
2023-01-12T08:48:49.094Z,97754.19
2023-01-12T08:51:15.553Z,97747.28
2023-01-12T08:53:42.021Z,97771.84
2023-01-12T08:56:08.482Z,97766.19
2023-01-12T08:58:35.400Z,97750.66
2023-01-12T09:01:11.069Z,97757.56
2023-01-12T09:03:39.369Z,97766.28
2023-01-12T09:06:15.496Z,97764.19
2023-01-12T09:08:42.903Z,97765.34
2023-01-12T09:11:11.272Z,97758.50
2023-01-12T09:13:38.135Z,97763.09
2023-01-12T09:16:14.543Z,97773.59
2023-01-12T09:18:42.618Z,97762.78
2023-01-12T09:21:13.748Z,97761.81
2023-01-12T09:23:40.638Z,97772.22
2023-01-12T09:26:12.457Z,97771.69
2023-01-12T09:28:39.634Z,97771.25
2023-01-12T09:31:10.805Z,97779.22
2023-01-12T09:33:39.606Z,97781.97
2023-01-12T09:36:15.151Z,97786.25
2023-01-12T09:38:44.272Z,97783.72
2023-01-12T09:41:44.310Z,97782.03
2023-01-12T09:44:48.367Z,97786.97
2023-01-12T09:47:26.515Z,97787.16
2023-01-12T09:50:10.125Z,97786.91
2023-01-12T09:52:43.567Z,97796.47
2023-01-12T09:55:18.943Z,97786.19
2023-01-12T09:57:48.387Z,97785.03
2023-01-12T10:00:18.189Z,97786.47
2023-01-12T10:03:07.104Z,97785.25
2023-01-12T10:05:52.166Z,97791.09
2023-01-12T10:08:40.593Z,97789.22
2023-01-12T10:11:44.072Z,97788.69
2023-01-12T10:14:33.222Z,97785.44
2023-01-12T10:17:50.554Z,97781.66
2023-01-12T10:20:39.376Z,97780.19
2023-01-12T10:23:08.853Z,97780.94
2023-01-12T10:25:48.505Z,97775.19
2023-01-12T10:28:36.866Z,97775.75
2023-01-12T10:31:04.744Z,97774.38
2023-01-12T10:33:34.372Z,97771.50
2023-01-12T10:36:08.597Z,97769.13
2023-01-12T10:38:54.425Z,97777.91
2023-01-12T10:41:26.803Z,97785.56
2023-01-12T10:43:56.101Z,97784.06
2023-01-12T10:46:26.906Z,97789.22
2023-01-12T10:49:14.696Z,97785.63
2023-01-12T10:51:51.797Z,97789.28
2023-01-12T10:54:25.355Z,97794.63
2023-01-12T10:56:59.944Z,97794.00
2023-01-12T10:59:31.523Z,97785.47
2023-01-12T11:02:07.143Z,97786.06
2023-01-12T11:04:49.802Z,97778.19
2023-01-12T11:07:19.398Z,97775.56
2023-01-12T11:09:46.191Z,97783.72
2023-01-12T11:12:36.764Z,97776.31
2023-01-12T11:15:18.070Z,97774.78
2023-01-12T11:18:33.790Z,97771.66
2023-01-12T11:21:07.880Z,97778.16
2023-01-12T11:24:19.304Z,97773.72
2023-01-12T11:26:55.811Z,97772.38
2023-01-12T11:29:36.060Z,97773.13
2023-01-12T11:32:36.555Z,97758.53
2023-01-12T11:35:29.868Z,97765.47
2023-01-12T11:38:03.841Z,97765.72
2023-01-12T11:40:37.438Z,97759.78
2023-01-12T11:43:55.518Z,97755.19
2023-01-12T11:46:46.514Z,97753.09
2023-01-12T11:49:38.592Z,97759.88
2023-01-12T11:52:10.391Z,97759.28
2023-01-12T11:54:38.909Z,97754.78
2023-01-12T11:57:25.714Z,97750.94
2023-01-12T12:00:43.420Z,97744.47
2023-01-12T12:03:47.717Z,97745.66
2023-01-12T12:06:45.089Z,97741.38
2023-01-12T12:09:48.137Z,97737.31
2023-01-12T12:12:46.827Z,97739.22
2023-01-12T12:16:13.594Z,97732.78
2023-01-12T12:19:21.333Z,97731.38
2023-01-12T12:22:19.972Z,97729.22
2023-01-12T12:25:10.735Z,97731.50
2023-01-12T12:28:02.146Z,97732.69
2023-01-12T12:30:59.332Z,97722.41
2023-01-12T12:34:03.260Z,97722.78
2023-01-12T12:36:50.061Z,97730.19
2023-01-12T12:39:36.475Z,97727.28
2023-01-12T12:42:36.843Z,97716.91
2023-01-12T12:45:26.217Z,97720.28
2023-01-12T12:47:55.998Z,97723.97
2023-01-12T12:50:30.547Z,97722.19
2023-01-12T12:53:19.817Z,97725.66
2023-01-12T12:55:49.914Z,97718.59
2023-01-12T12:58:22.674Z,97717.75
2023-01-12T13:00:52.255Z,97720.03
2023-01-12T13:03:40.632Z,97730.44
2023-01-12T13:06:25.793Z,97733.06
2023-01-12T13:08:55.759Z,97723.75
2023-01-12T13:11:47.848Z,97722.78
2023-01-12T13:14:29.999Z,97718.25
2023-01-12T13:17:26.923Z,97723.16
2023-01-12T13:20:10.702Z,97724.22
2023-01-12T13:22:46.860Z,97724.56
2023-01-12T13:25:16.437Z,97723.75
2023-01-12T13:27:57.740Z,97725.78
2023-01-12T13:30:30.248Z,97722.41
2023-01-12T13:33:15.676Z,97725.03
2023-01-12T13:35:45.704Z,97722.78
2023-01-12T13:38:33.820Z,97719.19
2023-01-12T13:41:17.613Z,97721.94
2023-01-12T13:43:57.720Z,97718.00
2023-01-12T13:46:28.477Z,97708.66
2023-01-12T13:48:55.999Z,97712.72
2023-01-12T13:51:41.154Z,97711.53
2023-01-12T13:54:15.142Z,97714.88
2023-01-12T13:56:42.982Z,97717.53
2023-01-12T13:59:19.505Z,97718.00
2023-01-12T14:01:48.476Z,97713.94
2023-01-12T14:04:32.541Z,97716.78
2023-01-12T14:07:33.804Z,97725.53
2023-01-12T14:10:24.979Z,97723.00
2023-01-12T14:13:12.019Z,97720.97
2023-01-12T14:16:02.175Z,97720.63
2023-01-12T14:18:42.897Z,97724.94
2023-01-12T14:21:37.783Z,97719.41
2023-01-12T14:24:17.502Z,97719.19
2023-01-12T14:26:44.136Z,97713.09
2023-01-12T14:29:13.318Z,97712.03
2023-01-12T14:31:45.051Z,97720.84
2023-01-12T14:34:27.593Z,97716.56
2023-01-12T14:36:56.132Z,97721.13
2023-01-12T14:39:27.647Z,97713.94
2023-01-12T14:42:14.964Z,97716.09
2023-01-12T14:45:13.823Z,97708.19
2023-01-12T14:47:41.903Z,97706.03
2023-01-12T14:50:20.611Z,97706.88
2023-01-12T14:52:48.383Z,97705.56
2023-01-12T14:55:25.057Z,97689.56
2023-01-12T14:58:01.794Z,97691.47
2023-01-12T15:00:32.813Z,97699.84
2023-01-12T15:03:04.879Z,97696.13
2023-01-12T15:05:34.120Z,97696.00
2023-01-12T15:08:07.939Z,97696.00
2023-01-12T15:10:39.322Z,97697.91
2023-01-12T15:13:29.132Z,97696.84
2023-01-12T15:16:16.269Z,97694.81
2023-01-12T15:19:01.616Z,97691.91
2023-01-12T15:21:49.479Z,97692.88
2023-01-12T15:24:53.579Z,97694.03
2023-01-12T15:27:23.323Z,97693.13
2023-01-12T15:29:50.475Z,97691.81
2023-01-12T15:32:48.561Z,97695.41
2023-01-12T15:35:21.351Z,97693.03
2023-01-12T15:37:48.022Z,97687.63
2023-01-12T15:40:15.259Z,97687.41
2023-01-12T15:42:42.181Z,97688.34
2023-01-12T15:45:29.359Z,97685.00
2023-01-12T15:47:56.433Z,97688.59
2023-01-12T15:50:24.287Z,97685.72
2023-01-12T15:52:51.252Z,97688.59
2023-01-12T15:55:22.057Z,97689.28
2023-01-12T15:57:51.242Z,97679.38
2023-01-12T16:00:24.052Z,97683.28
2023-01-12T16:02:52.313Z,97681.41
2023-01-12T16:05:23.172Z,97678.78
2023-01-12T16:07:50.315Z,97680.06
2023-01-12T16:10:18.229Z,97676.47
2023-01-12T16:12:45.870Z,97677.56
2023-01-12T16:15:25.307Z,97682.34
2023-01-12T16:17:52.454Z,97679.84
2023-01-12T16:20:20.594Z,97681.41
2023-01-12T16:22:48.024Z,97680.19
2023-01-12T16:25:15.631Z,97678.41
2023-01-12T16:27:42.209Z,97676.59
2023-01-12T16:30:14.722Z,97673.78
2023-01-12T16:32:45.816Z,97666.13
2023-01-12T16:35:13.804Z,97674.97
2023-01-12T16:37:40.616Z,97668.75
2023-01-12T16:40:07.986Z,97665.41
2023-01-12T16:42:34.522Z,97661.34
2023-01-12T16:45:01.070Z,97660.63
2023-01-12T16:47:27.613Z,97664.94
2023-01-12T16:49:54.205Z,97666.13
2023-01-12T16:52:22.667Z,97663.72
2023-01-12T16:54:49.419Z,97667.69
2023-01-12T16:57:18.004Z,97654.66
2023-01-12T16:59:45.443Z,97658.84
2023-01-12T17:02:17.230Z,97654.66
2023-01-12T17:04:45.659Z,97648.31
2023-01-12T17:07:12.903Z,97658.38
2023-01-12T17:09:40.605Z,97659.22
2023-01-12T17:12:07.853Z,97649.38
2023-01-12T17:14:35.727Z,97649.38
2023-01-12T17:17:07.227Z,97646.06
2023-01-12T17:19:36.524Z,97647.72
2023-01-12T17:22:06.732Z,97643.78
2023-01-12T17:24:35.547Z,97650.81
2023-01-12T17:27:02.608Z,97638.88
2023-01-12T17:29:29.419Z,97631.91
2023-01-12T17:32:03.573Z,97620.94
2023-01-12T17:34:36.740Z,97626.91
2023-01-12T17:37:04.224Z,97627.63
2023-01-12T17:39:31.189Z,97627.63
2023-01-12T17:42:16.266Z,97628.47
2023-01-12T17:44:42.863Z,97626.66
2023-01-12T17:47:10.648Z,97629.94
2023-01-12T17:49:37.684Z,97640.03
2023-01-12T17:52:05.169Z,97633.84
2023-01-12T17:54:31.712Z,97636.00
2023-01-12T17:56:58.243Z,97637.44
2023-01-12T17:59:24.847Z,97637.31
2023-01-12T18:01:52.047Z,97631.69
2023-01-12T18:04:19.030Z,97628.09
2023-01-12T18:06:46.193Z,97631.81
2023-01-12T18:09:13.772Z,97622.38
2023-01-12T18:11:40.798Z,97628.03
2023-01-12T18:14:08.167Z,97632.28
2023-01-12T18:16:35.263Z,97615.44
2023-01-12T18:19:05.765Z,97625.69
2023-01-12T18:21:33.868Z,97622.38
2023-01-12T18:24:01.471Z,97616.16
2023-01-12T18:26:35.564Z,97621.66
2023-01-12T18:29:05.565Z,97620.94
2023-01-12T18:31:37.476Z,97625.72
2023-01-12T18:34:06.287Z,97630.97
2023-01-12T18:36:39.300Z,97631.69
2023-01-12T18:39:10.953Z,97636.94
2023-01-12T18:41:56.328Z,97635.16
2023-01-12T18:44:24.710Z,97640.03
2023-01-12T18:47:10.086Z,97639.19
2023-01-12T18:49:38.133Z,97638.88
2023-01-12T18:52:24.295Z,97633.34
2023-01-12T18:54:54.718Z,97637.44
2023-01-12T18:57:25.048Z,97642.66
2023-01-12T19:00:16.281Z,97642.06
2023-01-12T19:02:43.929Z,97630.50
2023-01-12T19:05:35.424Z,97635.03
2023-01-12T19:08:22.243Z,97626.91
2023-01-12T19:10:48.734Z,97622.72
2023-01-12T19:13:34.028Z,97622.13
2023-01-12T19:16:19.374Z,97620.47
2023-01-12T19:18:45.930Z,97618.44
2023-01-12T19:21:30.804Z,97621.06
2023-01-12T19:24:16.145Z,97614.13
2023-01-12T19:27:01.467Z,97599.19
2023-01-12T19:29:28.066Z,97591.19
2023-01-12T19:31:54.529Z,97599.44
2023-01-12T19:34:21.207Z,97608.53
2023-01-12T19:36:47.833Z,97596.81
2023-01-12T19:39:15.201Z,97592.88
2023-01-12T19:42:00.526Z,97604.44
2023-01-12T19:44:27.109Z,97596.69
2023-01-12T19:46:53.591Z,97586.31
2023-01-12T19:49:20.099Z,97592.50
2023-01-12T19:51:47.214Z,97586.53
2023-01-12T19:54:13.799Z,97591.56
2023-01-12T19:56:40.350Z,97580.81
2023-01-12T19:59:06.919Z,97585.56
2023-01-12T20:01:33.512Z,97582.50
2023-01-12T20:04:00.104Z,97589.63
2023-01-12T20:06:26.725Z,97589.78
2023-01-12T20:08:53.214Z,97591.66
2023-01-12T20:11:19.745Z,97593.31
2023-01-12T20:13:46.340Z,97596.78
2023-01-12T20:16:13.517Z,97580.94
2023-01-12T20:18:43.240Z,97583.78
2023-01-12T20:21:11.161Z,97585.09
2023-01-12T20:23:37.959Z,97584.59
2023-01-12T20:26:09.153Z,97581.16
2023-01-12T20:28:36.043Z,97587.47
2023-01-12T20:31:13.001Z,97594.06
2023-01-12T20:33:39.839Z,97591.06
2023-01-12T20:36:14.259Z,97592.38
2023-01-12T20:38:42.063Z,97581.53
2023-01-12T20:41:10.346Z,97588.69
2023-01-12T20:43:37.099Z,97584.63
2023-01-12T20:46:09.175Z,97580.53
2023-01-12T20:48:35.880Z,97577.91
2023-01-12T20:51:03.109Z,97569.44
2023-01-12T20:53:31.518Z,97569.44
2023-01-12T20:55:58.193Z,97570.63
2023-01-12T20:58:24.820Z,97565.16
2023-01-12T21:00:51.514Z,97560.94
2023-01-12T21:03:18.325Z,97555.09
2023-01-12T21:05:47.872Z,97562.59
2023-01-12T21:08:17.802Z,97554.41
2023-01-12T21:10:53.588Z,97558.56
2023-01-12T21:13:21.140Z,97542.47
2023-01-12T21:15:47.670Z,97544.81
2023-01-12T21:18:14.543Z,97526.41
2023-01-12T21:20:44.213Z,97536.59
2023-01-12T21:23:11.340Z,97531.13
2023-01-12T21:25:42.849Z,97528.50
2023-01-12T21:28:10.442Z,97522.38
2023-01-12T21:30:38.745Z,97532.66
2023-01-12T21:33:05.952Z,97525.34
2023-01-12T21:35:32.991Z,97530.38
2023-01-12T21:37:59.712Z,97538.72
2023-01-12T21:40:26.361Z,97533.47
2023-01-12T21:43:13.065Z,97528.94
2023-01-12T21:45:44.900Z,97527.06
2023-01-12T21:48:13.886Z,97536.03
2023-01-12T21:50:41.134Z,97536.84
2023-01-12T21:53:08.743Z,97527.53
2023-01-12T21:55:35.544Z,97518.81
2023-01-12T21:58:02.364Z,97532.78
2023-01-12T22:00:29.838Z,97534.44
2023-01-12T22:02:57.627Z,97531.81
2023-01-12T22:05:25.355Z,97517.97
2023-01-12T22:07:52.275Z,97519.41
2023-01-12T22:10:19.262Z,97518.06
2023-01-12T22:12:54.041Z,97519.03
2023-01-12T22:15:26.246Z,97519.63
2023-01-12T22:17:56.299Z,97519.03
2023-01-12T22:20:24.228Z,97520.00
2023-01-12T22:22:51.611Z,97518.88
2023-01-12T22:25:18.422Z,97515.81
2023-01-12T22:27:45.710Z,97527.06
2023-01-12T22:30:22.057Z,97535.66
2023-01-12T22:32:48.740Z,97525.97
2023-01-12T22:35:15.288Z,97525.38
2023-01-12T22:37:41.844Z,97522.06
2023-01-12T22:40:11.341Z,97523.47
2023-01-12T22:42:56.884Z,97521.31
2023-01-12T22:45:23.704Z,97521.81
2023-01-12T22:47:55.605Z,97523.47
2023-01-12T22:50:23.555Z,97525.34
2023-01-12T22:52:54.544Z,97513.06
2023-01-12T22:55:23.975Z,97523.22
2023-01-12T22:57:51.425Z,97521.50
2023-01-12T23:00:20.456Z,97518.88
2023-01-12T23:03:02.461Z,97522.00
2023-01-12T23:05:35.458Z,97517.22
2023-01-12T23:08:06.096Z,97526.66
2023-01-12T23:10:33.728Z,97514.47
2023-01-12T23:13:15.499Z,97514.47
2023-01-12T23:15:48.010Z,97507.19
2023-01-12T23:18:21.975Z,97502.66
2023-01-12T23:20:49.229Z,97501.22
2023-01-12T23:23:20.214Z,97511.50
2023-01-12T23:25:47.621Z,97507.09
2023-01-12T23:28:15.217Z,97503.13
2023-01-12T23:30:42.797Z,97501.94
2023-01-12T23:33:11.305Z,97494.19
2023-01-12T23:35:41.210Z,97506.47
2023-01-12T23:38:13.993Z,97507.94
2023-01-12T23:40:40.476Z,97502.41
2023-01-12T23:43:07.068Z,97493.44
2023-01-12T23:45:34.264Z,97494.25
2023-01-12T23:48:00.738Z,97503.50
2023-01-12T23:50:27.178Z,97498.84
2023-01-12T23:52:53.623Z,97500.25
2023-01-12T23:55:20.190Z,97480.53
2023-01-12T23:57:47.914Z,97475.41
